Pearl, IL (62361)

10:40 AM CST on December 05, 2016 (GMT -0600)
Pittsfield Penstone Municipal | | Change Station
Active Advisory: Dense Fog Advisory Active Notice: Local Storm Report

Elev 709 ft 39.64 °N, 90.78 °W | Updated 5 minutes ago

Overcast
Overcast
36 °F
Feels Like 31 °F
N
6
Wind Variable Wind from SSE

Today
High -- | Low -- °F
--% Chance of Precip.
Yesterday
High -- | Low -- °F
Precip. -- in
Pressure 30.02 in
Visibility 2.5 miles
Clouds Overcast 100 ft
Windchill 31 °F
Dew Point 36 °F
Humidity 100%
Rainfall 0.00 in
Snow Depth Not available.
7:07 AM 4:38 PM
Waxing Crescent, 33% visible
METAR KPPQ 051635Z AUTO 16005KT 2 1/2SM BR OVC001 02/02 A3002 RMK AO2 T00220022
Pressure 30.02 in
Visibility 2.5 miles
Clouds Overcast 100 ft
Windchill 31 °F
Dew Point 36 °F
Humidity 100%
Rainfall 0.00 in
Snow Depth Not available.
7:07 AM 4:38 PM
Waxing Crescent, 33% visible
METAR KPPQ 051635Z AUTO 16005KT 2 1/2SM BR OVC001 02/02 A3002 RMK AO2 T00220022

10-Day Weather Forecast

Almanac

Astronomy

Dec. 05, 2016 Rise Set
Actual Time
Civil Twilight
Nautical Twilight
Astronomical Twilight
Moon
Length of Visible Light
Length of Day
Tomorrow will be .
, % of the Moon is Illuminated

Today's Extremes

State Highs State Lows

Community

WunderPhotos

Upload Photos

1,955,819 photos uploaded!

WunderBlog® & News

Nearby

Air Quality

  Air Quality AQ Index Pollutant
Not available.

Snow Depth

Station Depth Elevation

Earthquake Activity

City Distance Mag. Time & Date
Minimum magnitude displayed is 2.5.

Coastal Water Temperatures

Place Temperature

Stations

Nearby Weather Stations

Station Location Temp. Windchill Dew Point Humidity Wind Precip. Elev Updated Type
                   

Watches & Warnings

Dense Fog Advisory
Issued: 3:59 AM CST Dec. 5, 2016 – National Weather Service

... Dense fog advisory in effect until noon CST today...

The National Weather Service in Saint Louis has issued a dense
fog advisory... which is in effect until noon CST today.

* Timing... until 1200 noon today.

* Visibilities... visibilities of one-quarter mile or less at
times are expected.

* Impacts... rapid changes in visibility will cause hazardous
driving conditions. Additionally... freezing temperatures in the
advisory area may lead to trace accumulations of ice. Highway
bridges and overpasses may become slippery.

Precautionary/preparedness actions...

A dense fog advisory is issued when dense fog will substantially
reduce visibilities... to one-quarter mile or less... resulting in
hazardous driving conditions in many areas. Motorists are advised
to use caution and slow down... as objects on and near roadways
will be seen only at close range. Additionally, use extra caution
on Highway bridges and overpasses due to the potential for trace
ice accumulations.



Carney